createdAt,value
2023-05-09T00:01:34.896Z,20.55
2023-05-09T00:04:05.945Z,17.23
2023-05-09T00:06:36.596Z,14.60
2023-05-09T00:09:07.631Z,14.68
2023-05-09T00:11:38.384Z,15.38
2023-05-09T00:14:12.705Z,11.93
2023-05-09T00:16:43.472Z,12.27
2023-05-09T00:19:14.510Z,15.80
2023-05-09T00:21:45.203Z,14.73
2023-05-09T00:24:16.189Z,11.52
2023-05-09T00:26:46.946Z,10.48
2023-05-09T00:29:20.306Z,11.60
2023-05-09T00:31:51.061Z,10.60
2023-05-09T00:34:22.778Z,10.85
2023-05-09T00:36:53.534Z,11.52
2023-05-09T00:39:24.697Z,12.45
2023-05-09T00:41:56.024Z,10.00
2023-05-09T00:44:29.832Z,10.68
2023-05-09T00:47:00.513Z,9.93
2023-05-09T00:49:31.517Z,12.43
2023-05-09T00:52:02.503Z,10.98
2023-05-09T00:54:33.535Z,12.00
2023-05-09T00:57:04.426Z,9.95
2023-05-09T00:59:38.024Z,11.10
2023-05-09T01:02:08.789Z,10.32
2023-05-09T01:04:39.932Z,11.38
2023-05-09T01:07:17.267Z,11.25
2023-05-09T01:09:54.068Z,13.13
2023-05-09T01:12:31.278Z,11.85
2023-05-09T01:15:12.221Z,15.43
2023-05-09T01:17:53.088Z,14.90
2023-05-09T01:20:34.129Z,11.77
2023-05-09T01:23:23.617Z,11.68
2023-05-09T01:26:04.096Z,10.82
2023-05-09T01:29:06.611Z,10.32
2023-05-09T01:31:44.141Z,9.73
2023-05-09T01:34:17.501Z,9.25
2023-05-09T01:36:52.698Z,9.15
2023-05-09T01:39:25.061Z,9.90
2023-05-09T01:41:58.584Z,8.55
2023-05-09T01:44:32.818Z,9.23
2023-05-09T01:47:08.161Z,9.35
2023-05-09T01:49:40.987Z,8.55
2023-05-09T01:52:14.628Z,9.32
2023-05-09T01:54:46.287Z,11.35
2023-05-09T01:57:18.541Z,11.25
2023-05-09T01:59:51.321Z,9.55
2023-05-09T02:02:25.430Z,10.13
2023-05-09T02:04:59.140Z,9.68
2023-05-09T02:07:32.554Z,10.13
2023-05-09T02:10:05.474Z,12.07
2023-05-09T02:12:38.486Z,11.88
2023-05-09T02:15:11.078Z,9.40
2023-05-09T02:17:48.008Z,10.63
2023-05-09T02:20:19.311Z,11.15
2023-05-09T02:22:51.008Z,11.00
2023-05-09T02:25:21.781Z,8.80
2023-05-09T02:27:53.291Z,12.95
2023-05-09T02:30:27.427Z,9.82
2023-05-09T02:33:06.710Z,9.85
2023-05-09T02:35:38.512Z,9.70
2023-05-09T02:38:10.495Z,9.80
2023-05-09T02:40:42.317Z,9.15
2023-05-09T02:43:13.388Z,8.77
2023-05-09T02:45:44.237Z,8.77
2023-05-09T02:48:17.747Z,8.68
2023-05-09T02:50:48.669Z,8.18
2023-05-09T02:53:19.585Z,8.23
2023-05-09T02:55:50.797Z,8.57
2023-05-09T02:58:21.684Z,7.53
2023-05-09T03:00:52.390Z,8.25
2023-05-09T03:03:26.271Z,7.45
2023-05-09T03:05:57.172Z,7.72
2023-05-09T03:08:28.049Z,7.43
2023-05-09T03:10:59.058Z,8.13
2023-05-09T03:13:29.937Z,7.00
2023-05-09T03:16:02.344Z,7.10
2023-05-09T03:18:35.847Z,7.18
2023-05-09T03:21:06.699Z,6.55
2023-05-09T03:23:40.014Z,6.40
2023-05-09T03:26:10.671Z,4.70
2023-05-09T03:28:41.634Z,5.85
2023-05-09T03:31:12.810Z,6.97
2023-05-09T03:33:46.345Z,7.35
2023-05-09T03:36:18.765Z,5.70
2023-05-09T03:38:49.569Z,6.78
2023-05-09T03:41:24.468Z,5.50
2023-05-09T03:43:55.259Z,6.25
2023-05-09T03:46:26.099Z,6.55
2023-05-09T03:48:59.520Z,5.70
2023-05-09T03:51:30.359Z,7.00
2023-05-09T03:54:01.441Z,7.70
2023-05-09T03:56:33.201Z,8.10
2023-05-09T03:59:04.032Z,7.20
2023-05-09T04:01:38.258Z,8.57
2023-05-09T04:04:13.769Z,9.82
2023-05-09T04:06:44.696Z,9.50
2023-05-09T04:09:16.085Z,8.32
2023-05-09T04:11:46.978Z,8.07
2023-05-09T04:14:19.344Z,8.00
2023-05-09T04:16:50.212Z,7.45
2023-05-09T04:19:23.671Z,7.75
2023-05-09T04:21:54.421Z,10.05
2023-05-09T04:24:25.398Z,10.23
2023-05-09T04:26:56.196Z,8.27
2023-05-09T04:29:29.844Z,10.18
2023-05-09T04:32:01.947Z,7.57
2023-05-09T04:34:36.031Z,6.50
2023-05-09T04:37:13.648Z,7.70
2023-05-09T04:39:45.501Z,6.57
2023-05-09T04:42:23.241Z,8.48
2023-05-09T04:44:54.030Z,6.90
2023-05-09T04:47:26.279Z,6.30
2023-05-09T04:49:59.857Z,8.27
2023-05-09T04:52:30.783Z,8.60
2023-05-09T04:55:01.818Z,7.68
2023-05-09T04:57:37.410Z,4.93
2023-05-09T05:00:14.253Z,4.70
2023-05-09T05:02:45.330Z,5.18
2023-05-09T05:05:25.094Z,4.80
2023-05-09T05:07:57.506Z,4.30
2023-05-09T05:10:33.797Z,9.00
2023-05-09T05:13:09.960Z,3.85
2023-05-09T05:15:45.630Z,4.88
2023-05-09T05:18:17.603Z,9.93
2023-05-09T05:20:50.949Z,5.20
2023-05-09T05:23:22.081Z,4.88
2023-05-09T05:25:56.662Z,6.47
2023-05-09T05:28:27.530Z,6.05
2023-05-09T05:30:58.580Z,6.72
2023-05-09T05:33:29.319Z,6.20
2023-05-09T05:36:03.409Z,7.00
2023-05-09T05:38:34.229Z,5.85
2023-05-09T05:41:05.158Z,5.05
2023-05-09T05:43:37.045Z,4.72
2023-05-09T05:46:08.511Z,5.60
2023-05-09T05:48:39.414Z,6.68
2023-05-09T05:51:13.007Z,4.55
2023-05-09T05:56:16.150Z,4.30
2023-05-09T05:58:47.405Z,5.05
2023-05-09T06:01:18.478Z,5.38
2023-05-09T06:03:54.939Z,5.00
2023-05-09T06:06:31.490Z,3.88
2023-05-09T06:09:02.219Z,4.85
2023-05-09T06:11:33.049Z,4.65
2023-05-09T06:14:03.957Z,3.60
2023-05-09T06:16:34.940Z,3.83
2023-05-09T06:19:05.697Z,4.30
2023-05-09T06:21:39.281Z,6.50
2023-05-09T06:24:19.849Z,5.65
2023-05-09T06:26:54.757Z,5.28
2023-05-09T06:29:25.470Z,4.93
2023-05-09T06:31:56.231Z,4.70
2023-05-09T06:34:27.213Z,3.15
2023-05-09T06:37:00.646Z,4.32
2023-05-09T06:39:31.323Z,4.13
2023-05-09T06:42:02.129Z,5.50
2023-05-09T06:44:41.525Z,6.18
2023-05-09T06:47:12.317Z,9.68
2023-05-09T06:49:43.087Z,8.30
2023-05-09T06:52:16.769Z,5.10
2023-05-09T06:54:47.513Z,5.72
2023-05-09T06:57:18.518Z,4.32
2023-05-09T06:59:49.248Z,3.55
2023-05-09T07:02:19.988Z,3.63
2023-05-09T07:04:50.889Z,4.07
2023-05-09T07:07:24.558Z,4.35
2023-05-09T07:10:03.886Z,4.38
2023-05-09T07:12:41.019Z,5.07
2023-05-09T07:15:13.568Z,4.90
2023-05-09T07:17:45.436Z,4.15
2023-05-09T07:20:16.332Z,6.20
2023-05-09T07:22:52.364Z,6.47
2023-05-09T07:25:23.232Z,8.48
2023-05-09T07:27:54.021Z,6.38
2023-05-09T07:30:25.475Z,5.50
2023-05-09T07:32:56.495Z,6.45
2023-05-09T07:35:27.279Z,11.65
2023-05-09T07:38:00.621Z,7.18
2023-05-09T07:40:31.297Z,6.32
2023-05-09T07:43:02.169Z,29.88
2023-05-09T07:45:32.952Z,6.88
2023-05-09T07:48:03.990Z,9.30
2023-05-09T07:50:34.835Z,9.55
2023-05-09T07:53:08.298Z,7.03
2023-05-09T07:55:38.963Z,8.63
2023-05-09T07:58:09.695Z,10.52
2023-05-09T08:00:40.320Z,25.65
2023-05-09T08:03:11.382Z,12.10
2023-05-09T08:05:42.646Z,7.60
2023-05-09T08:08:16.116Z,9.27
2023-05-09T08:10:47.321Z,7.93
2023-05-09T08:13:19.335Z,6.68
2023-05-09T08:15:50.138Z,9.25
2023-05-09T08:18:21.317Z,8.50
2023-05-09T08:20:52.551Z,7.15
2023-05-09T08:23:26.126Z,7.75
2023-05-09T08:25:57.491Z,7.40
2023-05-09T08:28:28.925Z,12.32
2023-05-09T08:30:59.881Z,7.03
2023-05-09T08:33:30.893Z,7.43
2023-05-09T08:36:02.047Z,6.65
2023-05-09T08:38:36.712Z,6.03
2023-05-09T08:41:07.555Z,8.77
2023-05-09T08:43:38.687Z,7.63
2023-05-09T08:46:11.445Z,7.38
2023-05-09T08:48:43.044Z,9.95
2023-05-09T08:51:14.401Z,8.70
2023-05-09T08:53:48.055Z,10.07
2023-05-09T08:56:18.938Z,9.23
2023-05-09T08:58:49.914Z,9.40
2023-05-09T09:01:22.462Z,10.82
2023-05-09T09:03:54.687Z,8.20
2023-05-09T09:06:26.573Z,7.80
2023-05-09T09:09:02.106Z,9.20
2023-05-09T09:11:33.974Z,7.32
2023-05-09T09:14:06.554Z,9.60
2023-05-09T09:16:39.941Z,8.68
2023-05-09T09:19:15.177Z,9.45
2023-05-09T09:21:48.132Z,31.27
2023-05-09T09:24:26.093Z,14.20
2023-05-09T09:26:56.899Z,8.90
2023-05-09T09:29:29.105Z,8.80
2023-05-09T09:31:59.859Z,10.60
2023-05-09T09:34:30.679Z,8.90
2023-05-09T09:37:01.871Z,7.05
2023-05-09T09:39:35.346Z,11.30
2023-05-09T09:42:15.875Z,7.78
2023-05-09T09:44:46.513Z,7.88
2023-05-09T09:47:17.282Z,9.35
2023-05-09T09:49:50.114Z,6.95
2023-05-09T09:52:27.361Z,7.93
2023-05-09T09:55:03.588Z,8.63
2023-05-09T09:57:40.198Z,8.13
2023-05-09T10:02:51.418Z,5.50
2023-05-09T10:05:23.807Z,5.15
2023-05-09T10:07:58.033Z,5.95
2023-05-09T10:10:35.786Z,4.18
2023-05-09T10:13:09.745Z,5.40
2023-05-09T10:15:52.129Z,4.90
2023-05-09T10:18:29.160Z,4.82
2023-05-09T10:23:38.261Z,6.00
2023-05-09T10:26:20.494Z,5.97
2023-05-09T10:28:52.952Z,6.18
2023-05-09T10:31:29.267Z,8.73
2023-05-09T10:34:04.957Z,15.02
2023-05-09T10:39:06.735Z,6.68
2023-05-09T10:41:42.047Z,5.10
2023-05-09T10:44:13.610Z,6.05
2023-05-09T10:46:45.014Z,9.98
2023-05-09T10:49:16.471Z,7.65
2023-05-09T10:51:47.308Z,7.63
2023-05-09T10:54:30.725Z,7.85
2023-05-09T10:57:05.957Z,7.75
2023-05-09T10:59:41.309Z,5.57
2023-05-09T11:04:48.069Z,7.13
2023-05-09T11:07:30.480Z,6.35
2023-05-09T11:10:11.849Z,7.15
2023-05-09T11:13:02.410Z,6.57
2023-05-09T11:15:33.543Z,11.50
2023-05-09T11:18:09.996Z,15.85
2023-05-09T11:20:47.166Z,8.23
2023-05-09T11:23:20.414Z,21.88
2023-05-09T11:25:52.320Z,11.52
2023-05-09T11:28:33.533Z,5.97
2023-05-09T11:31:14.689Z,9.18
2023-05-09T11:33:48.125Z,7.63
2023-05-09T11:36:20.770Z,7.90
2023-05-09T11:38:51.851Z,7.32
2023-05-09T11:41:26.006Z,7.93
2023-05-09T11:44:00.635Z,8.23
2023-05-09T11:46:31.654Z,7.18
2023-05-09T11:49:02.412Z,8.82
2023-05-09T11:51:33.244Z,8.95
2023-05-09T11:54:04.196Z,6.70
2023-05-09T11:56:35.467Z,7.85
2023-05-09T11:59:10.900Z,6.90
2023-05-09T12:01:44.187Z,8.48
2023-05-09T12:04:15.137Z,9.60
2023-05-09T12:06:50.720Z,8.10
2023-05-09T12:11:52.310Z,6.13
2023-05-09T12:14:37.908Z,8.05
2023-05-09T12:19:39.969Z,9.00
2023-05-09T12:22:10.781Z,7.40
2023-05-09T12:24:41.667Z,7.38
2023-05-09T12:27:12.627Z,10.30
2023-05-09T12:29:46.446Z,5.43
2023-05-09T12:32:18.683Z,7.15
2023-05-09T12:34:49.498Z,6.45
2023-05-09T12:37:21.855Z,8.27
2023-05-09T12:40:05.200Z,14.60
2023-05-09T12:42:38.520Z,10.70
2023-05-09T12:45:14.952Z,12.02
2023-05-09T12:47:46.229Z,9.80
2023-05-09T12:50:17.022Z,9.30
2023-05-09T12:53:02.527Z,8.98
2023-05-09T12:55:34.562Z,9.85
2023-05-09T12:58:06.410Z,9.98
2023-05-09T13:00:48.616Z,7.35
2023-05-09T13:03:26.969Z,10.20
2023-05-09T13:05:58.495Z,7.30
2023-05-09T13:08:30.008Z,8.77
2023-05-09T13:11:15.002Z,10.30
2023-05-09T13:13:47.293Z,8.63
2023-05-09T13:16:21.031Z,11.00
2023-05-09T13:18:52.030Z,7.35
2023-05-09T13:21:22.733Z,10.90
2023-05-09T13:23:53.617Z,9.63
2023-05-09T13:26:24.473Z,13.73
2023-05-09T13:28:55.252Z,8.55
2023-05-09T13:31:28.690Z,9.90
2023-05-09T13:33:59.509Z,13.52
2023-05-09T13:36:30.434Z,10.82
2023-05-09T13:39:01.181Z,15.50
2023-05-09T13:41:35.337Z,11.77
2023-05-09T13:44:08.160Z,17.48
2023-05-09T13:46:41.811Z,13.35
2023-05-09T13:49:12.737Z,14.13
2023-05-09T13:51:43.428Z,13.75
2023-05-09T13:54:17.699Z,11.80
2023-05-09T13:56:48.795Z,13.32
2023-05-09T13:59:19.639Z,13.73
2023-05-09T14:01:53.006Z,11.88
2023-05-09T14:04:23.872Z,12.52
2023-05-09T14:06:55.266Z,15.02
2023-05-09T14:09:29.437Z,15.30
2023-05-09T14:12:00.244Z,15.73
2023-05-09T14:14:31.057Z,13.52
2023-05-09T14:17:04.840Z,15.20
2023-05-09T14:19:35.804Z,19.67
2023-05-09T14:22:06.449Z,16.58
2023-05-09T14:24:37.316Z,18.02
2023-05-09T14:27:08.015Z,17.85
2023-05-09T14:29:41.427Z,18.25
2023-05-09T14:32:15.025Z,20.85
2023-05-09T14:34:46.029Z,16.70
2023-05-09T14:37:16.862Z,18.60
2023-05-09T14:39:49.750Z,16.45
2023-05-09T14:42:20.496Z,18.02
2023-05-09T14:44:51.379Z,22.90
2023-05-09T14:47:24.799Z,16.98
2023-05-09T14:49:56.360Z,18.02
2023-05-09T14:52:27.050Z,17.15
2023-05-09T14:55:00.083Z,17.33
2023-05-09T14:57:30.867Z,21.17
2023-05-09T15:00:12.508Z,16.08
2023-05-09T15:02:53.507Z,16.75
2023-05-09T15:05:24.512Z,17.67
2023-05-09T15:07:55.176Z,17.00
2023-05-09T15:10:27.921Z,17.73
2023-05-09T15:12:58.646Z,21.20
2023-05-09T15:15:29.407Z,17.27
2023-05-09T15:18:02.950Z,16.27
2023-05-09T15:20:33.796Z,17.75
2023-05-09T15:23:04.433Z,16.15
2023-05-09T15:25:35.337Z,19.00
2023-05-09T15:28:07.261Z,16.13
2023-05-09T15:30:41.353Z,17.45
2023-05-09T15:33:14.805Z,19.75
2023-05-09T15:35:45.934Z,19.17
2023-05-09T15:38:16.966Z,18.88
2023-05-09T15:40:48.176Z,20.45
2023-05-09T15:43:19.163Z,16.20
2023-05-09T15:45:51.618Z,50.28
2023-05-09T15:48:25.294Z,27.20
2023-05-09T15:50:56.405Z,24.38
2023-05-09T15:53:28.039Z,18.98
2023-05-09T15:55:59.057Z,19.13
2023-05-09T15:58:29.918Z,18.55
2023-05-09T16:01:00.734Z,20.23
2023-05-09T16:03:34.157Z,18.65
2023-05-09T16:06:05.502Z,17.08
2023-05-09T16:08:36.276Z,18.27
2023-05-09T16:11:07.672Z,19.50
2023-05-09T16:13:38.280Z,17.15
2023-05-09T16:16:09.577Z,19.10
2023-05-09T16:18:42.920Z,19.33
2023-05-09T16:21:13.920Z,18.20
2023-05-09T16:23:44.798Z,16.58
2023-05-09T16:26:15.778Z,18.55
2023-05-09T16:28:46.568Z,16.65
2023-05-09T16:31:17.464Z,21.65
2023-05-09T16:33:51.053Z,20.05
2023-05-09T16:36:22.366Z,22.25
2023-05-09T16:38:53.236Z,21.50
2023-05-09T16:41:24.008Z,24.63
2023-05-09T16:43:54.786Z,31.60
2023-05-09T16:46:25.634Z,25.63
2023-05-09T16:48:58.990Z,30.27
2023-05-09T16:51:29.753Z,32.95
2023-05-09T16:54:00.683Z,25.10
2023-05-09T16:56:31.519Z,25.13
2023-05-09T16:59:02.296Z,26.30
2023-05-09T17:01:33.632Z,25.88
2023-05-09T17:04:07.161Z,23.00
2023-05-09T17:06:38.165Z,22.55
2023-05-09T17:09:09.210Z,24.80
2023-05-09T17:11:40.179Z,22.40
2023-05-09T17:14:11.077Z,23.10
2023-05-09T17:16:43.211Z,22.70
2023-05-09T17:19:16.967Z,20.05
2023-05-09T17:21:47.599Z,19.85
2023-05-09T17:24:18.385Z,20.58
2023-05-09T17:26:50.512Z,21.73
2023-05-09T17:29:21.345Z,19.83
2023-05-09T17:31:52.403Z,23.80
2023-05-09T17:34:25.957Z,21.77
2023-05-09T17:36:56.798Z,24.35
2023-05-09T17:39:28.831Z,23.25
2023-05-09T17:41:59.649Z,22.73
2023-05-09T17:44:30.557Z,24.92
2023-05-09T17:47:01.507Z,24.92
2023-05-09T17:49:34.932Z,25.95
2023-05-09T17:52:05.735Z,24.23
2023-05-09T17:54:36.732Z,25.27
2023-05-09T17:57:07.788Z,25.35
2023-05-09T17:59:40.768Z,25.33
2023-05-09T18:02:11.598Z,26.17
2023-05-09T18:04:46.649Z,24.48
2023-05-09T18:07:17.391Z,26.77
2023-05-09T18:09:48.289Z,26.75
2023-05-09T18:12:19.164Z,27.02
2023-05-09T18:14:50.005Z,25.25
2023-05-09T18:17:20.854Z,25.20
2023-05-09T18:19:54.310Z,27.73
2023-05-09T18:22:25.602Z,21.08
2023-05-09T18:24:56.583Z,21.98
2023-05-09T18:27:27.875Z,25.50
2023-05-09T18:29:58.664Z,22.73
2023-05-09T18:32:30.258Z,19.38
2023-05-09T18:35:04.412Z,25.50
2023-05-09T18:37:35.976Z,24.48
2023-05-09T18:40:07.357Z,31.42
2023-05-09T18:42:38.027Z,22.50
2023-05-09T18:45:10.279Z,25.60
2023-05-09T18:47:41.491Z,25.90
2023-05-09T18:50:16.654Z,22.98
2023-05-09T18:52:47.557Z,20.15
2023-05-09T18:55:20.047Z,24.10
2023-05-09T18:57:51.001Z,23.77
2023-05-09T19:00:21.971Z,24.33
2023-05-09T19:02:52.936Z,31.55
2023-05-09T19:05:27.719Z,29.77
2023-05-09T19:07:58.579Z,29.90
2023-05-09T19:10:29.558Z,30.20
2023-05-09T19:13:00.369Z,24.42
2023-05-09T19:15:31.167Z,30.52
2023-05-09T19:18:02.038Z,27.67
2023-05-09T19:20:35.573Z,30.08
2023-05-09T19:23:06.236Z,25.77
2023-05-09T19:25:38.015Z,27.08
2023-05-09T19:28:08.909Z,23.27
2023-05-09T19:30:39.734Z,18.67
2023-05-09T19:33:10.527Z,18.08
2023-05-09T19:35:44.640Z,18.33
2023-05-09T19:38:15.379Z,27.48
2023-05-09T19:40:46.290Z,32.28
2023-05-09T19:43:17.028Z,29.10
2023-05-09T19:45:47.782Z,33.55
2023-05-09T19:48:18.535Z,20.77
2023-05-09T19:50:52.107Z,17.52
2023-05-09T19:53:22.888Z,25.05
2023-05-09T19:55:53.791Z,30.55
2023-05-09T19:58:24.586Z,28.98
2023-05-09T20:00:55.390Z,27.50
2023-05-09T20:03:26.325Z,25.88
2023-05-09T20:05:59.892Z,24.25
2023-05-09T20:08:31.460Z,24.65
2023-05-09T20:11:02.432Z,28.27
2023-05-09T20:13:33.210Z,28.65
2023-05-09T20:16:04.585Z,24.88
2023-05-09T20:18:35.892Z,22.45
2023-05-09T20:21:10.718Z,23.70
2023-05-09T20:23:41.450Z,23.30
2023-05-09T20:26:12.176Z,20.83
2023-05-09T20:28:42.838Z,19.17
2023-05-09T20:31:13.669Z,21.13
2023-05-09T20:33:44.403Z,20.98
2023-05-09T20:36:17.822Z,19.80
2023-05-09T20:38:48.454Z,19.83
2023-05-09T20:41:19.200Z,21.13
2023-05-09T20:43:49.884Z,17.55
2023-05-09T20:46:20.791Z,18.50
2023-05-09T20:48:51.650Z,21.15
2023-05-09T20:51:25.146Z,22.85
2023-05-09T20:53:56.005Z,18.77
2023-05-09T20:56:28.896Z,18.45
2023-05-09T20:59:01.217Z,20.67
2023-05-09T21:01:35.753Z,17.95
2023-05-09T21:04:08.591Z,20.50
2023-05-09T21:06:41.998Z,16.98
2023-05-09T21:09:12.949Z,12.93
2023-05-09T21:11:43.923Z,13.63
2023-05-09T21:14:14.966Z,21.35
2023-05-09T21:16:47.007Z,21.45
2023-05-09T21:19:17.759Z,20.27
2023-05-09T21:21:51.193Z,23.25
2023-05-09T21:24:21.920Z,32.05
2023-05-09T21:26:52.662Z,20.33
2023-05-09T21:29:23.673Z,21.98
2023-05-09T21:31:54.426Z,21.55
2023-05-09T21:34:25.151Z,27.83
2023-05-09T21:36:58.485Z,35.42
2023-05-09T21:39:29.180Z,31.88
2023-05-09T21:42:00.530Z,30.50
2023-05-09T21:44:31.259Z,30.90
2023-05-09T21:47:02.193Z,30.80
2023-05-09T21:49:32.948Z,28.63
2023-05-09T21:52:06.657Z,27.38
2023-05-09T21:54:37.407Z,25.83
2023-05-09T21:57:08.786Z,22.25
2023-05-09T21:59:40.099Z,21.90
2023-05-09T22:02:10.976Z,21.60
2023-05-09T22:04:42.099Z,20.67
2023-05-09T22:07:16.054Z,20.38
2023-05-09T22:09:46.851Z,20.15
2023-05-09T22:12:17.715Z,22.55
2023-05-09T22:14:55.677Z,17.30
2023-05-09T22:17:27.219Z,19.13
2023-05-09T22:19:57.916Z,18.85
2023-05-09T22:22:32.252Z,17.98
2023-05-09T22:25:03.185Z,18.75
2023-05-09T22:27:35.057Z,20.60
2023-05-09T22:30:05.951Z,16.35
2023-05-09T22:32:37.345Z,15.77
2023-05-09T22:35:09.072Z,16.50
2023-05-09T22:37:44.394Z,17.77
2023-05-09T22:40:16.807Z,16.15
2023-05-09T22:42:47.873Z,16.85
2023-05-09T22:45:18.700Z,17.20
2023-05-09T22:47:49.588Z,16.15
2023-05-09T22:50:20.686Z,17.30
2023-05-09T22:52:54.189Z,18.85
2023-05-09T22:55:25.106Z,15.88
2023-05-09T22:57:55.953Z,18.70
2023-05-09T23:00:26.668Z,20.38
2023-05-09T23:02:57.555Z,20.33
2023-05-09T23:05:28.458Z,19.02
2023-05-09T23:08:02.040Z,19.88
2023-05-09T23:10:32.989Z,18.70
2023-05-09T23:13:05.031Z,18.92
2023-05-09T23:15:36.264Z,17.27
2023-05-09T23:18:07.616Z,16.73
2023-05-09T23:20:39.306Z,18.95
2023-05-09T23:23:12.716Z,20.10
2023-05-09T23:25:44.693Z,17.42
2023-05-09T23:28:15.522Z,17.70
2023-05-09T23:30:46.256Z,16.10
2023-05-09T23:33:17.173Z,16.15
2023-05-09T23:35:48.010Z,16.25
2023-05-09T23:38:22.902Z,15.93
2023-05-09T23:40:53.713Z,16.77
2023-05-09T23:43:24.413Z,12.38
2023-05-09T23:45:56.237Z,13.13
2023-05-09T23:48:27.199Z,14.23
2023-05-09T23:50:57.900Z,13.63
2023-05-09T23:53:31.639Z,15.68
2023-05-09T23:56:02.626Z,14.85
2023-05-09T23:58:33.419Z,16.45
